Buoy 46770

sailwx.info

Track history (hours):
 
Tides and Currents Weather Stations Pressure Air Temp Water Temp Dewpoint Dewpoint Depression Visibility Wind Speed Wind Dir Waves Ship Positions

Drifting buoy 46770

Last reported at 2014-Dec-21 15:30 UTC. Time now 2014-Dec-21 17:59 UTC.
Position N 53°14' E 177°59'.

Barometer 1007.8 mb
Water temperature 4.4 ° C

Date/timePositionNaut miles runAvg speedWind from/ knotsBaromVisibWave heightAir tempDewpointWater temp
2014-Dec-21 15:30N 53°14' E 177°59'5 1.7 1007.8 4.4
2014-Dec-21 12:30N 53°16' E 178°07'2 0.4 1006.5 4.4
2014-Dec-21 06:30N 53°18' E 178°09'3 1.0 1000.8 4.4
2014-Dec-21 03:30N 53°20' E 178°13'1 0.3 997.4 4.4
2014-Dec-21 01:30N 53°21' E 178°12'5 2.4 995.2 4.4
2014-Dec-20 23:30N 53°24' E 178°18'0 0.0 993.9 4.4
2014-Dec-20 22:30N 53°24' E 178°18'1 0.4 993.7 4.4
2014-Dec-20 19:30N 53°26' E 178°18'1 0.7 991.7 4.4
2014-Dec-20 17:30N 53°27' E 178°19'0 0.1 990.4 4.4
2014-Dec-20 16:30N 53°27' E 178°19'1 0.9 990.0 4.4
2014-Dec-20 15:30N 53°27' E 178°20'2 1.8 989.5 4.4
2014-Dec-20 14:30N 53°29' E 178°20'4 1.1 989.3 4.4
2014-Dec-20 10:30N 53°33' E 178°20'3 0.6 988.4 4.4
2014-Dec-20 05:30N 53°36' E 178°20'0 0.0 987.1 4.4
2014-Dec-20 04:30N 53°36' E 178°20'1 1.2 986.7 4.4
2014-Dec-20 03:30N 53°38' E 178°21'5 0.7 986.3 4.4
2014-Dec-19 20:30N 53°42' E 178°21'0 0.1 983.0 4.5
2014-Dec-19 19:30N 53°42' E 178°21'0 0.0 982.4 4.5
2014-Dec-19 18:30N 53°42' E 178°21'2 0.7 981.9 4.5
2014-Dec-19 15:30N 53°44' E 178°19'1 0.3 980.8 4.5
2014-Dec-19 12:30N 53°45' E 178°18'2 0.5 980.5 4.5
2014-Dec-19 08:30N 53°47' E 178°17'1 0.8 980.7 4.5
2014-Dec-19 07:30N 53°47' E 178°17'2 0.5 980.7 4.5
2014-Dec-19 03:30N 53°48' E 178°15'1 1.2 980.7 4.5
2014-Dec-19 02:30N 53°49' E 178°13'1 0.7 980.5 4.5
2014-Dec-19 00:30N 53°50' E 178°11'1 0.2 981.7 4.5
2014-Dec-18 17:30N 53°50' E 178°08'1 1.0 985.5 4.5
2014-Dec-18 16:30N 53°50' E 178°07'0 0.0 986.3 4.5
2014-Dec-18 15:30N 53°50' E 178°07'3 0.9 986.9 4.5
2014-Dec-18 12:30N 53°49' E 178°02'2 0.4 989.6 4.5
2014-Dec-18 07:30N 53°49' E 177°59'2 2.3 994.0 4.5
2014-Dec-18 06:30N 53°48' E 177°55'2 1.8 994.8 4.5
2014-Dec-18 05:30N 53°49' E 177°58'2 1.8 995.6 4.5
2014-Dec-18 04:30N 53°48' E 177°55'0 0.1 996.3 4.5
2014-Dec-18 03:30N 53°48' E 177°56'1 0.9 997.0 4.6
2014-Dec-18 02:30N 53°48' E 177°54'2 0.9 997.7 4.6
2014-Dec-18 00:30N 53°47' E 177°52'4 0.9 999.2 4.6
2014-Dec-17 19:30N 53°46' E 177°44'0 0.0 1000.3 4.6
2014-Dec-17 18:30N 53°46' E 177°44'0 0.0 1000.1 4.6
2014-Dec-17 17:30N 53°46' E 177°44'1 1.3 999.8 4.6
2014-Dec-17 16:30N 53°46' E 177°42'1 0.4 1000.0 4.6
2014-Dec-17 14:30N 53°45' E 177°41'5 1.0 999.5 4.6
2014-Dec-17 09:30N 53°42' E 177°35'0 0.0 998.0 4.6
2014-Dec-17 08:30N 53°42' E 177°35'3 1.7 997.6 4.6
2014-Dec-17 06:30N 53°39' E 177°31'0 0.0 996.6 4.6
2014-Dec-17 04:30N 53°39' E 177°31'2 0.8 995.3 4.6
2014-Dec-17 02:30N 53°38' E 177°29'0 0.0 993.8 4.6
2014-Dec-17 01:30N 53°38' E 177°29'0 0.0 993.1 4.7
2014-Dec-17 00:30N 53°38' E 177°29'2 2.3 992.5 4.7
2014-Dec-16 23:30N 53°36' E 177°28'2 0.4 992.3 4.7
2014-Dec-16 18:30N 53°34' E 177°28'11 0.5 990.4 4.7
2014-Dec-15 22:30N 53°23' E 177°29'2 0.6 990.2 4.6
2014-Dec-15 18:30N 53°21' E 177°29'0 0.0 990.3 4.7
2014-Dec-15 17:30N 53°21' E 177°29'1 0.6 990.2 4.7
2014-Dec-15 16:30N 53°20' E 177°29'1 0.9 990.5 4.7
2014-Dec-15 15:30N 53°20' E 177°31'0 0.0 990.4 4.7
2014-Dec-15 14:30N 53°20' E 177°31'0 0.0 990.5 4.7
2014-Dec-15 13:30N 53°20' E 177°31'2 0.7 990.5 4.7
2014-Dec-15 10:30N 53°19' E 177°34'0 0.0 990.8 4.7
2014-Dec-15 08:30N 53°19' E 177°34'1 0.7 991.0 4.7
2014-Dec-15 07:30N 53°19' E 177°35'1 0.3 991.2 4.7
2014-Dec-15 05:30N 53°18' E 177°35'0 0.2 991.1 4.7
2014-Dec-15 03:30N 53°18' E 177°35'1 1.2 991.4 4.7
2014-Dec-15 02:30N 53°17' E 177°37'0 0.0 991.5 4.7
2014-Dec-15 01:30N 53°17' E 177°37'1 1.3 991.5 4.7
2014-Dec-15 00:30N 53°16' E 177°37'0 0.0 991.6 4.8
2014-Dec-14 23:30N 53°16' E 177°37'1 1.1 991.7 4.8
2014-Dec-14 22:30N 53°16' E 177°39'3 0.7 991.7 4.8
2014-Dec-14 18:30N 53°16' E 177°44'0 0.4 990.3 4.7
2014-Dec-14 17:30N 53°16' E 177°43'1 0.3 990.0 4.7
2014-Dec-14 15:30N 53°17' E 177°44'0 0.0 989.4 4.7
2014-Dec-14 14:30N 53°17' E 177°44'0 0.0 989.0 4.7
2014-Dec-14 13:30N 53°17' E 177°44'1 0.4 988.4 4.8
2014-Dec-14 09:30N 53°17' E 177°46'1 1.1 986.8 4.8
2014-Dec-14 08:30N 53°17' E 177°48'0 0.4 986.4 4.8
2014-Dec-14 07:30N 53°17' E 177°49'1 0.7 986.1 4.8
2014-Dec-14 05:30N 53°17' E 177°51'3 1.3 985.4 4.8
2014-Dec-14 03:30N 53°17' E 177°55'1 0.4 984.8 4.8
2014-Dec-14 01:30N 53°18' E 177°56'2 1.7 984.6 4.8
2014-Dec-14 00:30N 53°19' E 177°58'0 0.0 985.1 4.8
2014-Dec-13 23:30N 53°19' E 177°58'14 0.5 985.8 4.8
2014-Dec-12 22:30N 53°31' E 178°10'2 0.4 1002.4 4.7
2014-Dec-12 18:30N 53°33' E 178°10'7 0.8 1008.1 4.7
2014-Dec-12 09:30N 53°39' E 178°08'0 0.0 1010.7 4.8
2014-Dec-12 08:30N 53°39' E 178°08'4 0.6 1010.5 4.8
2014-Dec-12 02:30N 53°43' E 178°08'0 0.2 1006.8 4.8
2014-Dec-12 01:30N 53°43' E 178°08'1 1.2 1006.3 4.8
2014-Dec-12 00:30N 53°44' E 178°07'1 1.3 1006.5 4.8
2014-Dec-11 23:30N 53°45' E 178°05'0 0.1 1006.7 4.8
2014-Dec-11 22:30N 53°45' E 178°05'2 0.8 1006.9 4.8
2014-Dec-11 19:30N 53°46' E 178°01'0 0.1 1006.7 4.8
2014-Dec-11 18:30N 53°45' E 178°01'0 0.2 1006.4 4.8
2014-Dec-11 17:30N 53°45' E 178°01'1 0.5 1006.3 4.8
2014-Dec-11 15:30N 53°46' E 177°60'   1006.4 4.8
Track history (hours):
 
Tides and Currents Weather Stations Pressure Air Temp Water Temp Dewpoint Dewpoint Depression Visibility Wind Speed Wind Dir Waves Ship Positions

Drifting buoy 46770

Last reported at 2014-Dec-21 15:30 UTC. Time now 2014-Dec-21 17:59 UTC.
Position N 53°14' E 177°59'.

Barometer 1007.8 mb
Water temperature 4.4 ° C

Date/timePositionNaut miles runAvg speedWind from/ knotsBaromVisibWave heightAir tempDewpointWater temp
2014-Dec-21 15:30N 53°14' E 177°59'5 1.7 1007.8 4.4
2014-Dec-21 12:30N 53°16' E 178°07'2 0.4 1006.5 4.4
2014-Dec-21 06:30N 53°18' E 178°09'3 1.0 1000.8 4.4
2014-Dec-21 03:30N 53°20' E 178°13'1 0.3 997.4 4.4
2014-Dec-21 01:30N 53°21' E 178°12'5 2.4 995.2 4.4
2014-Dec-20 23:30N 53°24' E 178°18'0 0.0 993.9 4.4
2014-Dec-20 22:30N 53°24' E 178°18'1 0.4 993.7 4.4
2014-Dec-20 19:30N 53°26' E 178°18'1 0.7 991.7 4.4
2014-Dec-20 17:30N 53°27' E 178°19'0 0.1 990.4 4.4
2014-Dec-20 16:30N 53°27' E 178°19'1 0.9 990.0 4.4
2014-Dec-20 15:30N 53°27' E 178°20'2 1.8 989.5 4.4
2014-Dec-20 14:30N 53°29' E 178°20'4 1.1 989.3 4.4
2014-Dec-20 10:30N 53°33' E 178°20'3 0.6 988.4 4.4
2014-Dec-20 05:30N 53°36' E 178°20'0 0.0 987.1 4.4
2014-Dec-20 04:30N 53°36' E 178°20'1 1.2 986.7 4.4
2014-Dec-20 03:30N 53°38' E 178°21'5 0.7 986.3 4.4
2014-Dec-19 20:30N 53°42' E 178°21'0 0.1 983.0 4.5
2014-Dec-19 19:30N 53°42' E 178°21'0 0.0 982.4 4.5
2014-Dec-19 18:30N 53°42' E 178°21'2 0.7 981.9 4.5
2014-Dec-19 15:30N 53°44' E 178°19'1 0.3 980.8 4.5
2014-Dec-19 12:30N 53°45' E 178°18'2 0.5 980.5 4.5
2014-Dec-19 08:30N 53°47' E 178°17'1 0.8 980.7 4.5
2014-Dec-19 07:30N 53°47' E 178°17'2 0.5 980.7 4.5
2014-Dec-19 03:30N 53°48' E 178°15'1 1.2 980.7 4.5
2014-Dec-19 02:30N 53°49' E 178°13'1 0.7 980.5 4.5
2014-Dec-19 00:30N 53°50' E 178°11'1 0.2 981.7 4.5
2014-Dec-18 17:30N 53°50' E 178°08'1 1.0 985.5 4.5
2014-Dec-18 16:30N 53°50' E 178°07'0 0.0 986.3 4.5
2014-Dec-18 15:30N 53°50' E 178°07'3 0.9 986.9 4.5
2014-Dec-18 12:30N 53°49' E 178°02'2 0.4 989.6 4.5
2014-Dec-18 07:30N 53°49' E 177°59'2 2.3 994.0 4.5
2014-Dec-18 06:30N 53°48' E 177°55'2 1.8 994.8 4.5
2014-Dec-18 05:30N 53°49' E 177°58'2 1.8 995.6 4.5
2014-Dec-18 04:30N 53°48' E 177°55'0 0.1 996.3 4.5
2014-Dec-18 03:30N 53°48' E 177°56'1 0.9 997.0 4.6
2014-Dec-18 02:30N 53°48' E 177°54'2 0.9 997.7 4.6
2014-Dec-18 00:30N 53°47' E 177°52'4 0.9 999.2 4.6
2014-Dec-17 19:30N 53°46' E 177°44'0 0.0 1000.3 4.6
2014-Dec-17 18:30N 53°46' E 177°44'0 0.0 1000.1 4.6
2014-Dec-17 17:30N 53°46' E 177°44'1 1.3 999.8 4.6
2014-Dec-17 16:30N 53°46' E 177°42'1 0.4 1000.0 4.6
2014-Dec-17 14:30N 53°45' E 177°41'5 1.0 999.5 4.6
2014-Dec-17 09:30N 53°42' E 177°35'0 0.0 998.0 4.6
2014-Dec-17 08:30N 53°42' E 177°35'3 1.7 997.6 4.6
2014-Dec-17 06:30N 53°39' E 177°31'0 0.0 996.6 4.6
2014-Dec-17 04:30N 53°39' E 177°31'2 0.8 995.3 4.6
2014-Dec-17 02:30N 53°38' E 177°29'0 0.0 993.8 4.6
2014-Dec-17 01:30N 53°38' E 177°29'0 0.0 993.1 4.7
2014-Dec-17 00:30N 53°38' E 177°29'2 2.3 992.5 4.7
2014-Dec-16 23:30N 53°36' E 177°28'2 0.4 992.3 4.7
2014-Dec-16 18:30N 53°34' E 177°28'11 0.5 990.4 4.7
2014-Dec-15 22:30N 53°23' E 177°29'2 0.6 990.2 4.6
2014-Dec-15 18:30N 53°21' E 177°29'0 0.0 990.3 4.7
2014-Dec-15 17:30N 53°21' E 177°29'1 0.6 990.2 4.7
2014-Dec-15 16:30N 53°20' E 177°29'1 0.9 990.5 4.7
2014-Dec-15 15:30N 53°20' E 177°31'0 0.0 990.4 4.7
2014-Dec-15 14:30N 53°20' E 177°31'0 0.0 990.5 4.7
2014-Dec-15 13:30N 53°20' E 177°31'2 0.7 990.5 4.7
2014-Dec-15 10:30N 53°19' E 177°34'0 0.0 990.8 4.7
2014-Dec-15 08:30N 53°19' E 177°34'1 0.7 991.0 4.7
2014-Dec-15 07:30N 53°19' E 177°35'1 0.3 991.2 4.7
2014-Dec-15 05:30N 53°18' E 177°35'0 0.2 991.1 4.7
2014-Dec-15 03:30N 53°18' E 177°35'1 1.2 991.4 4.7
2014-Dec-15 02:30N 53°17' E 177°37'0 0.0 991.5 4.7
2014-Dec-15 01:30N 53°17' E 177°37'1 1.3 991.5 4.7
2014-Dec-15 00:30N 53°16' E 177°37'0 0.0 991.6 4.8
2014-Dec-14 23:30N 53°16' E 177°37'1 1.1 991.7 4.8
2014-Dec-14 22:30N 53°16' E 177°39'3 0.7 991.7 4.8
2014-Dec-14 18:30N 53°16' E 177°44'0 0.4 990.3 4.7
2014-Dec-14 17:30N 53°16' E 177°43'1 0.3 990.0 4.7
2014-Dec-14 15:30N 53°17' E 177°44'0 0.0 989.4 4.7
2014-Dec-14 14:30N 53°17' E 177°44'0 0.0 989.0 4.7
2014-Dec-14 13:30N 53°17' E 177°44'1 0.4 988.4 4.8
2014-Dec-14 09:30N 53°17' E 177°46'1 1.1 986.8 4.8
2014-Dec-14 08:30N 53°17' E 177°48'0 0.4 986.4 4.8
2014-Dec-14 07:30N 53°17' E 177°49'1 0.7 986.1 4.8
2014-Dec-14 05:30N 53°17' E 177°51'3 1.3 985.4 4.8
2014-Dec-14 03:30N 53°17' E 177°55'1 0.4 984.8 4.8
2014-Dec-14 01:30N 53°18' E 177°56'2 1.7 984.6 4.8
2014-Dec-14 00:30N 53°19' E 177°58'0 0.0 985.1 4.8
2014-Dec-13 23:30N 53°19' E 177°58'14 0.5 985.8 4.8
2014-Dec-12 22:30N 53°31' E 178°10'2 0.4 1002.4 4.7
2014-Dec-12 18:30N 53°33' E 178°10'7 0.8 1008.1 4.7
2014-Dec-12 09:30N 53°39' E 178°08'0 0.0 1010.7 4.8
2014-Dec-12 08:30N 53°39' E 178°08'4 0.6 1010.5 4.8
2014-Dec-12 02:30N 53°43' E 178°08'0 0.2 1006.8 4.8
2014-Dec-12 01:30N 53°43' E 178°08'1 1.2 1006.3 4.8
2014-Dec-12 00:30N 53°44' E 178°07'1 1.3 1006.5 4.8
2014-Dec-11 23:30N 53°45' E 178°05'0 0.1 1006.7 4.8
2014-Dec-11 22:30N 53°45' E 178°05'2 0.8 1006.9 4.8
2014-Dec-11 19:30N 53°46' E 178°01'0 0.1 1006.7 4.8
2014-Dec-11 18:30N 53°45' E 178°01'0 0.2 1006.4 4.8
2014-Dec-11 17:30N 53°45' E 178°01'1 0.5 1006.3 4.8
2014-Dec-11 15:30N 53°46' E 177°60'   1006.4 4.8

Dump ship's entire track history